Time;durP1;ratioP1;P1;durP2;ratioP2;P2;SDS_P1;SDS_P2;PMS_P1;PMS_P2;Temp;Humidity;BMP_temperature;BMP_pressure;BME280_temperature;BME280_humidity;BME280_pressure;Samples;Min_cycle;Max_cycle;Signal;HPM_P1;HPM_P2
2023/06/20 00:00:31;;;;;;;;;;;19.60;76.50;;;;;;5055374;28;19955;-78
2023/06/20 00:02:57;;;;;;;;;;;19.70;74.20;;;;;;5056219;28;20480;-75
2023/06/20 00:05:22;;;;;;;;;;;19.50;76.70;;;;;;5039099;28;19912;-77
2023/06/20 00:07:48;;;;;;;;;;;19.30;78.10;;;;;;5052176;28;20303;-73
2023/06/20 00:10:14;;;;;;;;;;;19.10;79.10;;;;;;5057237;28;19963;-73
2023/06/20 00:12:40;;;;;;;;;;;19.20;78.20;;;;;;5061842;28;19912;-74
2023/06/20 00:15:06;;;;;;;;;;;19.20;78.00;;;;;;5060746;28;19916;-75
2023/06/20 00:17:32;;;;;;;;;;;19.10;79.00;;;;;;5063409;28;19986;-74
2023/06/20 00:19:57;;;;;;;;;;;19.10;79.20;;;;;;5060888;28;19915;-74
2023/06/20 00:22:23;;;;;;;;;;;19.40;77.30;;;;;;5061872;28;19915;-76
2023/06/20 00:24:49;;;;;;;;;;;19.40;77.60;;;;;;5062276;28;20003;-76
2023/06/20 00:27:14;;;;;;;;;;;19.30;77.60;;;;;;5061172;28;19915;-77
2023/06/20 00:29:40;;;;;;;;;;;19.30;77.70;;;;;;5062280;28;20518;-78
2023/06/20 00:32:05;;;;;;;;;;;19.30;77.50;;;;;;5059797;28;19912;-79
2023/06/20 00:34:31;;;;;;;;;;;19.30;77.40;;;;;;5060788;28;20695;-77
2023/06/20 00:36:57;;;;;;;;;;;19.30;77.50;;;;;;5063414;28;19912;-78
2023/06/20 00:39:23;;;;;;;;;;;19.20;77.70;;;;;;5056548;28;19919;-78
2023/06/20 00:41:49;;;;;;;;;;;19.20;78.20;;;;;;5059529;28;19908;-79
2023/06/20 00:44:14;;;;;;;;;;;19.20;77.30;;;;;;5062731;28;19908;-77
2023/06/20 00:46:41;;;;;;;;;;;19.30;76.40;;;;;;5058355;28;20006;-78
2023/06/20 00:49:07;;;;;;;;;;;19.30;76.50;;;;;;5060771;28;19916;-77
2023/06/20 00:51:34;;;;;;;;;;;19.30;76.60;;;;;;5065706;28;19908;-77
2023/06/20 00:53:59;;;;;;;;;;;19.30;76.60;;;;;;5063537;28;19924;-76
2023/06/20 00:56:25;;;;;;;;;;;19.30;75.90;;;;;;5063681;28;20006;-78
2023/06/20 00:58:52;;;;;;;;;;;19.30;75.60;;;;;;5057486;28;20018;-78
2023/06/20 01:01:17;;;;;;;;;;;19.30;75.60;;;;;;5063011;28;20768;-74
2023/06/20 01:03:43;;;;;;;;;;;19.30;73.60;;;;;;5057200;28;19947;-74
2023/06/20 01:06:20;;;;;;;;;;;19.30;74.30;;;;;;5060070;28;19912;-74
2023/06/20 01:08:50;;;;;;;;;;;19.30;74.10;;;;;;5064918;28;19920;-78
2023/06/20 01:11:24;;;;;;;;;;;19.30;73.80;;;;;;5064658;28;19908;-76
2023/06/20 01:14:03;;;;;;;;;;;19.30;73.30;;;;;;5063865;28;19916;-75
2023/06/20 01:16:38;;;;;;;;;;;19.30;72.90;;;;;;5062639;28;19960;-75
2023/06/20 01:19:11;;;;;;;;;;;19.40;72.30;;;;;;5062338;28;19930;-75
2023/06/20 01:21:39;;;;;;;;;;;19.40;72.50;;;;;;5059900;28;19948;-78
2023/06/20 01:24:29;;;;;;;;;;;19.40;72.20;;;;;;5055206;28;19912;-77
2023/06/20 01:26:54;;;;;;;;;;;19.40;71.80;;;;;;5059874;28;19912;-79
2023/06/20 01:29:26;;;;;;;;;;;19.50;70.90;;;;;;5060117;28;20307;-75
2023/06/20 01:31:57;;;;;;;;;;;19.60;70.40;;;;;;5064210;28;20408;-75
2023/06/20 01:34:24;;;;;;;;;;;19.70;69.40;;;;;;5057135;28;20347;-74
2023/06/20 01:36:52;;;;;;;;;;;19.80;69.40;;;;;;5060270;28;19947;-79
2023/06/20 01:39:22;;;;;;;;;;;19.90;68.40;;;;;;5057112;28;20050;-75
2023/06/20 01:41:49;;;;;;;;;;;19.90;68.60;;;;;;5057267;28;19912;-76
2023/06/20 01:44:16;;;;;;;;;;;20.00;67.20;;;;;;5062874;28;19916;-75
2023/06/20 01:46:42;;;;;;;;;;;20.00;68.30;;;;;;5063329;28;20394;-75
2023/06/20 01:49:09;;;;;;;;;;;20.00;68.10;;;;;;5063627;28;19916;-74
2023/06/20 01:51:34;;;;;;;;;;;20.00;68.50;;;;;;5063072;28;19909;-75
2023/06/20 01:54:02;;;;;;;;;;;20.00;68.60;;;;;;5054212;28;19928;-76
2023/06/20 01:56:28;;;;;;;;;;;20.00;68.60;;;;;;5054607;28;19916;-76
2023/06/20 01:58:54;;;;;;;;;;;20.00;69.30;;;;;;5043061;28;20437;-76
2023/06/20 02:01:20;;;;;;;;;;;19.90;69.80;;;;;;5059126;28;19916;-76
2023/06/20 02:03:46;;;;;;;;;;;19.50;72.50;;;;;;5057608;28;20434;-76
2023/06/20 02:06:13;;;;;;;;;;;19.20;75.90;;;;;;5062637;28;20813;-77
2023/06/20 02:08:39;;;;;;;;;;;19.10;76.40;;;;;;5059064;28;19924;-75
2023/06/20 02:11:05;;;;;;;;;;;18.90;76.80;;;;;;5063144;28;19904;-74
2023/06/20 02:13:32;;;;;;;;;;;18.90;77.50;;;;;;5061164;28;19908;-77
2023/06/20 02:15:59;;;;;;;;;;;18.80;78.10;;;;;;5062620;28;19995;-76
2023/06/20 02:18:24;;;;;;;;;;;18.90;77.40;;;;;;5059989;28;19916;-76
2023/06/20 02:20:53;;;;;;;;;;;18.90;76.80;;;;;;5061890;28;19912;-75
2023/06/20 02:23:23;;;;;;;;;;;19.10;76.80;;;;;;5053527;28;19908;-75
2023/06/20 02:25:50;;;;;;;;;;;19.10;76.10;;;;;;5062668;28;19912;-75
2023/06/20 02:28:16;;;;;;;;;;;19.20;75.90;;;;;;5060075;28;20822;-79
2023/06/20 02:30:42;;;;;;;;;;;19.30;75.10;;;;;;5054148;28;19917;-76
2023/06/20 02:33:08;;;;;;;;;;;19.40;73.60;;;;;;5053205;28;19916;-76
2023/06/20 02:35:36;;;;;;;;;;;19.50;73.10;;;;;;5063114;28;19918;-75
2023/06/20 02:38:02;;;;;;;;;;;19.50;73.50;;;;;;5052703;28;19932;-76
2023/06/20 02:40:27;;;;;;;;;;;19.40;74.50;;;;;;5061531;28;19989;-75
2023/06/20 02:42:53;;;;;;;;;;;19.20;75.30;;;;;;5055158;28;19995;-74
2023/06/20 02:45:19;;;;;;;;;;;19.20;75.10;;;;;;5062399;28;20006;-75
2023/06/20 02:48:01;;;;;;;;;;;19.30;75.60;;;;;;5046444;28;19908;-75
2023/06/20 02:50:47;;;;;;;;;;;19.20;76.30;;;;;;5057127;28;19916;-75
2023/06/20 02:53:15;;;;;;;;;;;19.20;76.60;;;;;;5044082;28;19955;-75
2023/06/20 02:55:44;;;;;;;;;;;19.30;76.50;;;;;;5053340;28;19938;-75
2023/06/20 02:58:12;;;;;;;;;;;19.20;75.80;;;;;;5042584;28;19916;-75
2023/06/20 03:00:38;;;;;;;;;;;19.30;76.60;;;;;;5055355;28;19908;-74
2023/06/20 03:03:08;;;;;;;;;;;19.20;78.30;;;;;;5061893;28;19912;-74
2023/06/20 03:05:36;;;;;;;;;;;19.20;77.60;;;;;;5060837;28;19946;-74
2023/06/20 03:08:02;;;;;;;;;;;19.20;75.50;;;;;;5062315;28;19927;-75
2023/06/20 03:10:28;;;;;;;;;;;19.40;74.30;;;;;;5048170;28;19919;-74
2023/06/20 03:12:54;;;;;;;;;;;19.40;74.50;;;;;;5062546;28;20299;-74
2023/06/20 03:15:19;;;;;;;;;;;19.40;75.10;;;;;;5053784;28;19939;-75
2023/06/20 03:17:45;;;;;;;;;;;19.40;75.30;;;;;;5061339;28;19927;-77
2023/06/20 03:20:10;;;;;;;;;;;19.30;76.30;;;;;;5059392;28;19965;-75
2023/06/20 03:22:36;;;;;;;;;;;19.30;77.00;;;;;;5056647;28;19995;-76
2023/06/20 03:25:02;;;;;;;;;;;19.10;77.30;;;;;;5054035;28;19955;-74
2023/06/20 03:27:27;;;;;;;;;;;18.90;79.70;;;;;;5059757;28;19912;-74
2023/06/20 03:29:53;;;;;;;;;;;19.20;78.50;;;;;;5058224;28;19916;-74
2023/06/20 03:32:19;;;;;;;;;;;19.30;76.50;;;;;;5058212;28;20134;-75
2023/06/20 03:34:45;;;;;;;;;;;19.40;75.00;;;;;;5056871;28;19908;-74
2023/06/20 03:37:10;;;;;;;;;;;19.40;74.50;;;;;;5050419;28;19909;-73
2023/06/20 03:39:36;;;;;;;;;;;19.40;73.40;;;;;;5052498;28;19917;-76
2023/06/20 03:42:02;;;;;;;;;;;19.50;75.90;;;;;;5050696;28;20019;-74
2023/06/20 03:44:30;;;;;;;;;;;19.40;77.10;;;;;;5060586;28;19943;-75
2023/06/20 03:46:56;;;;;;;;;;;19.40;76.00;;;;;;5054568;28;20313;-76
2023/06/20 03:49:21;;;;;;;;;;;19.50;75.60;;;;;;5056152;28;20375;-74
2023/06/20 03:51:47;;;;;;;;;;;19.30;77.80;;;;;;5061074;28;19912;-74
2023/06/20 03:54:12;;;;;;;;;;;19.00;81.60;;;;;;5061881;28;19970;-75
2023/06/20 03:56:38;;;;;;;;;;;18.80;83.10;;;;;;5063366;28;20386;-74
2023/06/20 03:59:03;;;;;;;;;;;18.60;85.30;;;;;;5055708;28;19919;-76
2023/06/20 04:01:29;;;;;;;;;;;18.50;85.80;;;;;;5042356;28;20336;-75
2023/06/20 04:03:55;;;;;;;;;;;18.40;88.20;;;;;;5058934;28;19915;-75
2023/06/20 04:06:20;;;;;;;;;;;18.40;88.60;;;;;;5039016;28;19917;-74
2023/06/20 04:08:46;;;;;;;;;;;18.40;88.40;;;;;;5056645;28;20630;-74
2023/06/20 04:11:11;;;;;;;;;;;18.40;90.00;;;;;;5064302;28;20291;-77
2023/06/20 04:13:37;;;;;;;;;;;18.50;89.00;;;;;;5064064;28;20650;-75
2023/06/20 04:16:03;;;;;;;;;;;18.60;88.60;;;;;;5063964;28;20981;-77
2023/06/20 04:18:28;;;;;;;;;;;18.60;89.20;;;;;;5058641;28;19909;-75
2023/06/20 04:20:54;;;;;;;;;;;18.50;89.90;;;;;;5063725;28;19908;-75
2023/06/20 04:23:19;;;;;;;;;;;18.00;92.90;;;;;;5047363;28;19967;-75
2023/06/20 04:25:45;;;;;;;;;;;18.30;92.00;;;;;;5066027;28;20014;-76
2023/06/20 04:28:10;;;;;;;;;;;18.00;91.70;;;;;;5059088;28;19912;-76
2023/06/20 04:30:37;;;;;;;;;;;18.10;91.40;;;;;;5062161;28;19916;-76
2023/06/20 04:33:02;;;;;;;;;;;18.50;90.80;;;;;;5055622;28;20305;-75
2023/06/20 04:35:29;;;;;;;;;;;18.60;89.80;;;;;;5069436;28;20579;-75
2023/06/20 04:37:56;;;;;;;;;;;18.40;89.30;;;;;;5060244;28;19912;-75
2023/06/20 04:40:22;;;;;;;;;;;17.90;92.30;;;;;;5041018;28;19917;-76
2023/06/20 04:42:47;;;;;;;;;;;17.60;93.30;;;;;;5033442;28;19912;-76
2023/06/20 04:45:13;;;;;;;;;;;17.60;94.30;;;;;;5047271;28;19913;-75
2023/06/20 04:47:41;;;;;;;;;;;17.10;99.80;;;;;;5045548;28;20356;-78
2023/06/20 04:50:09;;;;;;;;;;;16.70;99.90;;;;;;5056071;28;19920;-77
2023/06/20 04:52:35;;;;;;;;;;;16.60;99.90;;;;;;5056681;28;19924;-75
2023/06/20 04:55:03;;;;;;;;;;;16.60;99.90;;;;;;5056375;28;19959;-76
2023/06/20 04:57:29;;;;;;;;;;;16.60;99.90;;;;;;5057441;28;20023;-76
2023/06/20 04:59:55;;;;;;;;;;;16.60;99.90;;;;;;5051412;28;20339;-77
2023/06/20 05:02:20;;;;;;;;;;;16.50;99.90;;;;;;5054217;28;19920;-77
2023/06/20 05:04:46;;;;;;;;;;;16.60;99.90;;;;;;5054429;28;19916;-77
2023/06/20 05:07:12;;;;;;;;;;;16.60;99.90;;;;;;5054535;28;21039;-78
2023/06/20 05:09:37;;;;;;;;;;;16.50;99.90;;;;;;5055831;28;20414;-76
2023/06/20 05:12:03;;;;;;;;;;;16.50;99.90;;;;;;5062351;28;19912;-75
2023/06/20 05:14:29;;;;;;;;;;;16.70;99.90;;;;;;5049127;28;19919;-76
2023/06/20 05:16:54;;;;;;;;;;;16.70;99.90;;;;;;5055976;28;19913;-76
2023/06/20 05:19:20;;;;;;;;;;;16.80;99.90;;;;;;5054922;28;19917;-76
2023/06/20 05:21:45;;;;;;;;;;;16.70;99.90;;;;;;5052751;28;20284;-76
2023/06/20 05:24:11;;;;;;;;;;;16.60;99.90;;;;;;5052253;28;19935;-75
2023/06/20 05:26:37;;;;;;;;;;;16.70;99.90;;;;;;5053114;28;20363;-76
2023/06/20 05:29:03;;;;;;;;;;;16.70;99.90;;;;;;5054335;28;19928;-76
2023/06/20 05:31:29;;;;;;;;;;;16.70;99.90;;;;;;5036470;28;19919;-75
2023/06/20 05:33:55;;;;;;;;;;;16.50;99.90;;;;;;5051778;28;19912;-74
2023/06/20 05:36:20;;;;;;;;;;;16.50;99.90;;;;;;5061026;28;19909;-74
2023/06/20 05:38:48;;;;;;;;;;;16.60;99.90;;;;;;5038420;28;20440;-74
2023/06/20 05:41:16;;;;;;;;;;;16.40;99.90;;;;;;5062326;28;19915;-74
2023/06/20 05:43:42;;;;;;;;;;;16.50;99.90;;;;;;5046513;28;19962;-74
2023/06/20 05:46:08;;;;;;;;;;;16.40;99.90;;;;;;5035658;28;19912;-76
2023/06/20 05:48:34;;;;;;;;;;;16.50;99.90;;;;;;5044917;28;20380;-73
2023/06/20 05:51:03;;;;;;;;;;;16.60;99.90;;;;;;5043999;28;19967;-73
2023/06/20 05:53:29;;;;;;;;;;;16.70;99.90;;;;;;5047323;28;19921;-73
2023/06/20 05:55:54;;;;;;;;;;;16.90;99.90;;;;;;5059191;28;19948;-72
2023/06/20 05:58:20;;;;;;;;;;;17.00;99.90;;;;;;5051119;28;19996;-77
2023/06/20 06:00:46;;;;;;;;;;;16.90;99.90;;;;;;5046923;28;19995;-78
2023/06/20 06:03:12;;;;;;;;;;;16.80;99.90;;;;;;5044243;28;20360;-75
2023/06/20 06:05:39;;;;;;;;;;;16.90;99.90;;;;;;5046503;28;19923;-76
2023/06/20 06:08:05;;;;;;;;;;;17.00;99.90;;;;;;5051168;28;19924;-74
2023/06/20 06:10:30;;;;;;;;;;;17.20;99.90;;;;;;5043871;28;20464;-73
2023/06/20 06:12:56;;;;;;;;;;;17.00;99.90;;;;;;5043345;28;20058;-74
2023/06/20 06:15:22;;;;;;;;;;;16.80;99.90;;;;;;5052459;28;19924;-73
2023/06/20 06:17:48;;;;;;;;;;;16.90;99.90;;;;;;5048832;28;19915;-73
2023/06/20 06:20:17;;;;;;;;;;;16.90;99.90;;;;;;5052764;28;19908;-73
2023/06/20 06:22:43;;;;;;;;;;;16.90;99.90;;;;;;5058924;28;19912;-73
2023/06/20 06:25:08;;;;;;;;;;;17.10;99.90;;;;;;5054617;28;19912;-73
2023/06/20 06:27:34;;;;;;;;;;;17.20;99.90;;;;;;5058849;28;19913;-73
2023/06/20 06:30:00;;;;;;;;;;;17.30;99.90;;;;;;5059056;28;19967;-73
2023/06/20 06:32:27;;;;;;;;;;;16.80;99.90;;;;;;5055804;28;20477;-73
2023/06/20 06:34:53;;;;;;;;;;;16.80;99.90;;;;;;5044503;28;19954;-73
2023/06/20 06:37:20;;;;;;;;;;;16.80;99.90;;;;;;5045378;28;19912;-73
2023/06/20 06:39:45;;;;;;;;;;;16.90;99.90;;;;;;5054122;28;19915;-76
2023/06/20 06:42:11;;;;;;;;;;;17.10;99.90;;;;;;5042752;28;19912;-72
2023/06/20 06:44:37;;;;;;;;;;;17.10;99.90;;;;;;5050938;28;19908;-74
2023/06/20 06:47:03;;;;;;;;;;;17.20;99.90;;;;;;5048041;28;19908;-73
2023/06/20 06:49:31;;;;;;;;;;;17.10;99.90;;;;;;5042847;28;19923;-73
2023/06/20 06:51:56;;;;;;;;;;;17.10;99.90;;;;;;5043487;28;19909;-74
2023/06/20 06:54:22;;;;;;;;;;;17.30;99.90;;;;;;5045952;28;20647;-73
2023/06/20 06:56:47;;;;;;;;;;;17.40;99.90;;;;;;5042921;28;19917;-74
2023/06/20 06:59:13;;;;;;;;;;;17.20;99.90;;;;;;5042728;28;19952;-73
2023/06/20 07:01:39;;;;;;;;;;;17.20;99.90;;;;;;5051480;28;20291;-73
2023/06/20 07:04:05;;;;;;;;;;;17.40;99.90;;;;;;5061896;28;19954;-72
2023/06/20 07:06:31;;;;;;;;;;;17.50;99.90;;;;;;5044644;28;19905;-73
2023/06/20 07:08:56;;;;;;;;;;;17.70;99.90;;;;;;5043881;28;19916;-75
2023/06/20 07:11:22;;;;;;;;;;;17.80;99.90;;;;;;5062810;28;20021;-73
2023/06/20 07:13:48;;;;;;;;;;;17.80;99.90;;;;;;5061520;28;20363;-74
2023/06/20 07:16:13;;;;;;;;;;;17.80;99.90;;;;;;5061331;28;20004;-73
2023/06/20 07:18:39;;;;;;;;;;;17.90;99.90;;;;;;5059061;28;19986;-73
2023/06/20 07:21:04;;;;;;;;;;;18.10;99.90;;;;;;5058065;28;19970;-73
2023/06/20 07:23:30;;;;;;;;;;;18.30;99.90;;;;;;5062910;28;20041;-73
2023/06/20 07:25:55;;;;;;;;;;;18.40;99.90;;;;;;5050521;28;19908;-75
2023/06/20 07:28:21;;;;;;;;;;;18.50;99.90;;;;;;5057480;28;19924;-74
2023/06/20 07:30:47;;;;;;;;;;;18.60;99.90;;;;;;5055451;28;19909;-73
2023/06/20 07:33:12;;;;;;;;;;;18.60;99.90;;;;;;5052444;28;20434;-75
2023/06/20 07:35:38;;;;;;;;;;;18.60;99.90;;;;;;5065368;28;19915;-73
2023/06/20 07:38:03;;;;;;;;;;;18.70;99.90;;;;;;5051306;28;19909;-73
2023/06/20 07:40:29;;;;;;;;;;;18.80;99.90;;;;;;5062678;28;19924;-73
2023/06/20 07:42:54;;;;;;;;;;;18.80;99.90;;;;;;5062322;28;19908;-74
2023/06/20 07:45:20;;;;;;;;;;;18.80;99.90;;;;;;5061977;28;19912;-73
2023/06/20 07:47:45;;;;;;;;;;;18.80;99.90;;;;;;5043278;28;19912;-73
2023/06/20 07:50:11;;;;;;;;;;;18.80;99.90;;;;;;5059796;28;19916;-73
2023/06/20 07:52:37;;;;;;;;;;;18.70;99.90;;;;;;5059097;28;19909;-72
2023/06/20 07:55:04;;;;;;;;;;;18.80;99.90;;;;;;5060254;28;20585;-73
2023/06/20 07:57:29;;;;;;;;;;;18.90;99.90;;;;;;5056839;28;20014;-73
2023/06/20 07:59:55;;;;;;;;;;;19.20;99.90;;;;;;5052560;28;20474;-73
2023/06/20 08:02:21;;;;;;;;;;;19.80;99.90;;;;;;5059798;28;19909;-73
2023/06/20 08:04:47;;;;;;;;;;;20.10;99.90;;;;;;5047183;28;19951;-74
2023/06/20 08:07:13;;;;;;;;;;;20.60;99.90;;;;;;5059923;28;20376;-75
2023/06/20 08:09:38;;;;;;;;;;;20.90;99.90;;;;;;5061553;28;19927;-73
2023/06/20 08:12:04;;;;;;;;;;;21.10;99.20;;;;;;5058109;28;19921;-73
2023/06/20 08:14:30;;;;;;;;;;;21.00;99.10;;;;;;5060789;28;20272;-73
2023/06/20 08:16:55;;;;;;;;;;;20.70;99.90;;;;;;5056035;28;19991;-73
2023/06/20 08:19:21;;;;;;;;;;;20.70;99.90;;;;;;5055129;28;20440;-73
2023/06/20 08:21:46;;;;;;;;;;;20.70;99.90;;;;;;5058936;28;19909;-75
2023/06/20 08:24:12;;;;;;;;;;;20.90;99.70;;;;;;5058264;28;20847;-73
2023/06/20 08:26:38;;;;;;;;;;;20.80;99.60;;;;;;5046511;28;19915;-76
2023/06/20 08:29:03;;;;;;;;;;;20.90;99.30;;;;;;5059277;28;19923;-73
2023/06/20 08:31:36;;;;;;;;;;;20.80;99.60;;;;;;5049276;28;19908;-73
2023/06/20 08:34:02;;;;;;;;;;;20.70;99.40;;;;;;5061444;28;19916;-73
2023/06/20 08:36:28;;;;;;;;;;;20.60;99.90;;;;;;5042135;28;19915;-73
2023/06/20 08:38:54;;;;;;;;;;;20.50;99.90;;;;;;5062634;28;19953;-75
2023/06/20 08:41:23;;;;;;;;;;;20.50;99.90;;;;;;5047340;28;19913;-73
2023/06/20 08:43:49;;;;;;;;;;;20.50;99.90;;;;;;5061939;28;19909;-73
2023/06/20 08:46:14;;;;;;;;;;;20.40;99.90;;;;;;5063848;28;19908;-73
2023/06/20 08:48:41;;;;;;;;;;;20.20;99.90;;;;;;5062679;28;19920;-75
2023/06/20 08:51:07;;;;;;;;;;;20.20;99.90;;;;;;5062779;28;19977;-73
2023/06/20 08:53:33;;;;;;;;;;;20.10;99.90;;;;;;5061577;28;20067;-73
2023/06/20 08:55:59;;;;;;;;;;;20.00;99.90;;;;;;5046215;28;19948;-74
2023/06/20 08:58:24;;;;;;;;;;;19.90;99.90;;;;;;5056096;28;20413;-73
2023/06/20 09:00:50;;;;;;;;;;;19.80;99.90;;;;;;5061792;28;19912;-73
2023/06/20 09:03:16;;;;;;;;;;;19.50;99.90;;;;;;5059982;28;19978;-74
2023/06/20 09:05:42;;;;;;;;;;;19.50;99.90;;;;;;5051031;28;19908;-74
2023/06/20 09:08:10;;;;;;;;;;;19.40;99.90;;;;;;5065019;28;20343;-74
2023/06/20 09:10:39;;;;;;;;;;;19.30;99.90;;;;;;5063140;28;19916;-74
2023/06/20 09:13:06;;;;;;;;;;;19.30;99.90;;;;;;5063389;28;19931;-73
2023/06/20 09:15:33;;;;;;;;;;;19.30;99.90;;;;;;5062659;28;19915;-74
2023/06/20 09:18:02;;;;;;;;;;;19.30;99.90;;;;;;5062518;28;19912;-74
2023/06/20 09:20:28;;;;;;;;;;;19.40;99.90;;;;;;5061909;28;19930;-73
2023/06/20 09:22:53;;;;;;;;;;;19.40;99.90;;;;;;5069414;28;19923;-73
2023/06/20 09:25:23;;;;;;;;;;;19.30;99.90;;;;;;5044225;28;20567;-73
2023/06/20 09:27:50;;;;;;;;;;;19.40;99.90;;;;;;5058588;28;20007;-74
2023/06/20 09:30:15;;;;;;;;;;;19.40;99.90;;;;;;5060743;28;19916;-73
2023/06/20 09:32:41;;;;;;;;;;;19.40;99.90;;;;;;5056455;28;19908;-75
2023/06/20 09:35:08;;;;;;;;;;;19.40;99.90;;;;;;5044591;28;20362;-73
2023/06/20 09:37:37;;;;;;;;;;;19.20;99.90;;;;;;5059522;28;19913;-74
2023/06/20 09:40:08;;;;;;;;;;;19.00;99.90;;;;;;5044980;28;19908;-73
2023/06/20 09:42:34;;;;;;;;;;;18.90;99.90;;;;;;5056188;28;19922;-75
2023/06/20 09:44:59;;;;;;;;;;;18.80;99.90;;;;;;5062544;28;19916;-74
2023/06/20 09:47:25;;;;;;;;;;;18.90;99.90;;;;;;5062118;28;19913;-73
2023/06/20 09:49:54;;;;;;;;;;;18.80;99.90;;;;;;5058192;28;19966;-73
2023/06/20 09:52:20;;;;;;;;;;;18.80;99.90;;;;;;5060160;28;20024;-74
2023/06/20 09:54:56;;;;;;;;;;;18.90;99.90;;;;;;5061721;28;20008;-74
2023/06/20 09:57:25;;;;;;;;;;;19.20;99.90;;;;;;5057142;28;19942;-75
2023/06/20 09:59:54;;;;;;;;;;;19.50;99.90;;;;;;5059404;28;19923;-74
2023/06/20 10:02:23;;;;;;;;;;;20.00;99.90;;;;;;5059511;28;19908;-74
2023/06/20 10:04:49;;;;;;;;;;;20.60;99.90;;;;;;5060830;28;20398;-74
2023/06/20 10:07:16;;;;;;;;;;;20.90;99.90;;;;;;5061166;28;19908;-74
2023/06/20 10:09:42;;;;;;;;;;;21.30;99.90;;;;;;5061850;28;19940;-74
2023/06/20 10:12:10;;;;;;;;;;;21.00;99.90;;;;;;5061302;28;19915;-74
2023/06/20 10:14:36;;;;;;;;;;;21.20;99.90;;;;;;5063570;28;19935;-74
2023/06/20 10:17:08;;;;;;;;;;;21.40;99.90;;;;;;5060021;28;19908;-74
2023/06/20 10:19:52;;;;;;;;;;;21.40;99.90;;;;;;5061927;28;19953;-75
2023/06/20 10:22:31;;;;;;;;;;;21.40;99.90;;;;;;5056385;28;19997;-74
2023/06/20 10:24:57;;;;;;;;;;;21.70;99.90;;;;;;5058749;28;20368;-74
2023/06/20 10:27:23;;;;;;;;;;;21.70;99.90;;;;;;5060619;28;19916;-73
2023/06/20 10:29:51;;;;;;;;;;;22.20;99.90;;;;;;5061620;28;20554;-75
2023/06/20 10:32:16;;;;;;;;;;;22.70;99.70;;;;;;5059823;28;19916;-75
2023/06/20 10:34:42;;;;;;;;;;;22.90;98.70;;;;;;5055843;28;19908;-74
2023/06/20 10:37:20;;;;;;;;;;;23.30;97.30;;;;;;5061053;28;19963;-74
2023/06/20 10:39:55;;;;;;;;;;;23.90;96.60;;;;;;5059310;28;19909;-73
2023/06/20 10:42:47;;;;;;;;;;;24.10;94.40;;;;;;5047886;28;19909;-73
2023/06/20 10:45:16;;;;;;;;;;;24.70;94.50;;;;;;5051627;28;19912;-73
2023/06/20 10:47:42;;;;;;;;;;;25.20;92.80;;;;;;5060974;28;19909;-75
2023/06/20 10:50:08;;;;;;;;;;;24.40;93.10;;;;;;5061098;28;19994;-74
2023/06/20 10:52:35;;;;;;;;;;;24.60;93.20;;;;;;5060362;28;19908;-73
2023/06/20 10:55:01;;;;;;;;;;;24.90;92.30;;;;;;5053617;28;20011;-74
2023/06/20 10:57:28;;;;;;;;;;;25.30;92.40;;;;;;5059086;28;19916;-74
2023/06/20 10:59:53;;;;;;;;;;;24.90;92.60;;;;;;5061078;28;19908;-74
2023/06/20 11:02:19;;;;;;;;;;;24.60;93.40;;;;;;5059604;28;19915;-73
2023/06/20 11:04:47;;;;;;;;;;;24.90;92.80;;;;;;5062184;28;19915;-74
2023/06/20 11:07:13;;;;;;;;;;;24.90;92.00;;;;;;5061546;28;19934;-73
2023/06/20 11:09:39;;;;;;;;;;;25.10;92.10;;;;;;5061282;28;19916;-75
2023/06/20 11:12:07;;;;;;;;;;;25.40;91.90;;;;;;5049975;28;19909;-73
2023/06/20 11:14:33;;;;;;;;;;;25.30;91.70;;;;;;5060924;28;19908;-74
2023/06/20 11:16:58;;;;;;;;;;;24.80;91.70;;;;;;5058903;28;19909;-74
2023/06/20 11:19:27;;;;;;;;;;;24.40;92.20;;;;;;5060604;28;20377;-74
2023/06/20 11:21:53;;;;;;;;;;;24.80;92.20;;;;;;5053634;28;20022;-74
2023/06/20 11:24:19;;;;;;;;;;;24.90;92.00;;;;;;5038704;28;20006;-73
2023/06/20 11:26:45;;;;;;;;;;;25.10;91.70;;;;;;5058817;28;20386;-74
2023/06/20 11:29:10;;;;;;;;;;;25.30;91.20;;;;;;5056543;28;19916;-74
2023/06/20 11:31:36;;;;;;;;;;;25.30;91.20;;;;;;5053157;28;19911;-74
2023/06/20 11:34:01;;;;;;;;;;;25.00;92.20;;;;;;5058825;28;19931;-74
2023/06/20 11:36:27;;;;;;;;;;;25.10;92.40;;;;;;5057385;28;19909;-74
2023/06/20 11:38:53;;;;;;;;;;;25.20;92.10;;;;;;5062751;28;20462;-74
2023/06/20 11:41:28;;;;;;;;;;;24.90;92.70;;;;;;5053065;28;19909;-73
2023/06/20 11:43:54;;;;;;;;;;;24.70;93.40;;;;;;5057337;28;20669;-74
2023/06/20 11:46:20;;;;;;;;;;;24.60;93.60;;;;;;5061711;28;19909;-73
2023/06/20 11:48:49;;;;;;;;;;;25.10;93.50;;;;;;5060996;28;19916;-73
2023/06/20 11:51:15;;;;;;;;;;;25.70;92.30;;;;;;5051633;28;20370;-74
2023/06/20 11:53:41;;;;;;;;;;;26.30;91.00;;;;;;5060358;28;19924;-74
2023/06/20 11:56:07;;;;;;;;;;;26.70;90.20;;;;;;5062112;28;19916;-76
2023/06/20 11:58:52;;;;;;;;;;;26.60;90.10;;;;;;5054256;28;20027;-74
2023/06/20 12:01:22;;;;;;;;;;;26.60;89.20;;;;;;5057442;28;20388;-74
2023/06/20 12:04:06;;;;;;;;;;;26.60;87.00;;;;;;5050778;28;19908;-74
2023/06/20 12:06:36;;;;;;;;;;;26.20;85.20;;;;;;5061642;28;19909;-74
2023/06/20 12:09:12;;;;;;;;;;;26.00;86.40;;;;;;5063415;28;19916;-74
2023/06/20 12:11:49;;;;;;;;;;;26.40;88.30;;;;;;5060225;28;19908;-74
2023/06/20 12:14:16;;;;;;;;;;;26.70;88.80;;;;;;5063747;28;19908;-74
2023/06/20 12:16:42;;;;;;;;;;;26.30;86.00;;;;;;5062200;28;19951;-73
2023/06/20 12:19:07;;;;;;;;;;;26.30;85.50;;;;;;5063551;28;19939;-74
2023/06/20 12:21:33;;;;;;;;;;;26.20;84.80;;;;;;5062252;28;19915;-73
2023/06/20 12:23:58;;;;;;;;;;;26.10;85.00;;;;;;5062057;28;19914;-74
2023/06/20 12:26:24;;;;;;;;;;;26.00;88.20;;;;;;5059607;28;20787;-73
2023/06/20 12:28:50;;;;;;;;;;;26.00;88.70;;;;;;5063435;28;19916;-76
2023/06/20 12:31:15;;;;;;;;;;;26.10;90.00;;;;;;5054869;28;19989;-73
2023/06/20 12:33:41;;;;;;;;;;;26.20;90.70;;;;;;5060415;28;19908;-74
2023/06/20 12:36:08;;;;;;;;;;;26.30;90.30;;;;;;5060201;28;19909;-75
2023/06/20 12:38:34;;;;;;;;;;;26.30;90.80;;;;;;5059309;28;19941;-73
2023/06/20 12:41:00;;;;;;;;;;;26.00;91.70;;;;;;5055583;28;19908;-74
2023/06/20 12:43:25;;;;;;;;;;;25.80;91.70;;;;;;5063238;28;19955;-73
2023/06/20 12:45:52;;;;;;;;;;;26.00;91.80;;;;;;5064218;28;19913;-76
2023/06/20 12:48:18;;;;;;;;;;;26.10;91.00;;;;;;5065143;28;19908;-73
2023/06/20 12:50:43;;;;;;;;;;;26.40;90.30;;;;;;5064110;28;19912;-74
2023/06/20 12:53:09;;;;;;;;;;;26.90;89.40;;;;;;5060561;28;19921;-74
2023/06/20 12:55:35;;;;;;;;;;;27.10;87.90;;;;;;5061561;28;19924;-75
2023/06/20 12:58:01;;;;;;;;;;;26.80;87.60;;;;;;5060058;28;19912;-74
2023/06/20 13:00:30;;;;;;;;;;;26.30;86.00;;;;;;5063506;28;19908;-75
2023/06/20 13:02:55;;;;;;;;;;;26.00;86.60;;;;;;5059410;28;20379;-74
2023/06/20 13:05:22;;;;;;;;;;;25.70;87.90;;;;;;5063596;28;19915;-73
2023/06/20 13:07:47;;;;;;;;;;;25.60;89.10;;;;;;5063899;28;19939;-74
2023/06/20 13:10:15;;;;;;;;;;;25.60;89.20;;;;;;5063153;28;20035;-74
2023/06/20 13:12:41;;;;;;;;;;;25.50;88.20;;;;;;5064923;28;19908;-75
2023/06/20 13:15:07;;;;;;;;;;;25.30;88.80;;;;;;5061991;28;19915;-76
2023/06/20 13:17:33;;;;;;;;;;;25.30;88.10;;;;;;5063247;28;19978;-73
2023/06/20 13:19:59;;;;;;;;;;;25.70;88.00;;;;;;5059698;28;20411;-74
2023/06/20 13:22:24;;;;;;;;;;;26.10;87.20;;;;;;5064497;28;19908;-73
2023/06/20 13:24:50;;;;;;;;;;;26.20;87.60;;;;;;5060470;28;19982;-76
2023/06/20 13:27:16;;;;;;;;;;;26.20;88.30;;;;;;5061911;28;20508;-73
2023/06/20 13:29:41;;;;;;;;;;;26.30;86.00;;;;;;5047794;28;19916;-73
2023/06/20 13:32:07;;;;;;;;;;;26.40;85.50;;;;;;5054898;28;19915;-74
2023/06/20 13:34:33;;;;;;;;;;;26.20;87.70;;;;;;5054890;28;19908;-74
2023/06/20 13:36:58;;;;;;;;;;;26.10;85.10;;;;;;5061056;28;20669;-73
2023/06/20 13:39:27;;;;;;;;;;;26.30;86.80;;;;;;5059518;28;19936;-73
2023/06/20 13:41:53;;;;;;;;;;;25.90;87.80;;;;;;5063619;28;19938;-73
2023/06/20 13:44:19;;;;;;;;;;;25.70;87.40;;;;;;5062845;28;20322;-73
2023/06/20 13:46:45;;;;;;;;;;;25.80;89.10;;;;;;5058259;28;19955;-74
2023/06/20 13:49:10;;;;;;;;;;;25.60;88.50;;;;;;5061023;28;20020;-73
2023/06/20 13:51:36;;;;;;;;;;;25.80;88.60;;;;;;5064131;28;19909;-73
2023/06/20 13:54:03;;;;;;;;;;;25.70;88.60;;;;;;5052821;28;19995;-73
2023/06/20 13:56:29;;;;;;;;;;;25.60;90.00;;;;;;5059642;28;19936;-73
2023/06/20 13:58:54;;;;;;;;;;;25.90;89.40;;;;;;5063828;28;19912;-73
2023/06/20 14:01:20;;;;;;;;;;;26.00;88.80;;;;;;5062476;28;20458;-76
2023/06/20 14:03:47;;;;;;;;;;;25.70;90.30;;;;;;5056751;28;19912;-74
2023/06/20 14:06:12;;;;;;;;;;;25.20;90.50;;;;;;5062563;28;19912;-73
2023/06/20 14:08:38;;;;;;;;;;;25.00;91.30;;;;;;5062288;28;19912;-74
2023/06/20 14:11:04;;;;;;;;;;;25.00;91.50;;;;;;5062845;28;20041;-75
2023/06/20 14:13:29;;;;;;;;;;;25.10;92.20;;;;;;5052437;28;19908;-74